createdAt,value
2023-05-04T00:02:53.175Z,6.94
2023-05-04T00:12:55.378Z,6.68
2023-05-04T00:22:57.473Z,6.01
2023-05-04T00:32:59.533Z,6.21
2023-05-04T00:43:01.614Z,6.22
2023-05-04T00:53:09.170Z,5.97
2023-05-04T01:03:11.367Z,5.89
2023-05-04T01:13:15.335Z,5.81
2023-05-04T01:23:17.425Z,5.50
2023-05-04T01:33:19.823Z,5.75
2023-05-04T01:43:21.836Z,5.73
2023-05-04T01:53:23.872Z,5.76
2023-05-04T02:03:26.402Z,5.16
2023-05-04T02:13:28.813Z,5.17
2023-05-04T02:23:30.845Z,5.16
2023-05-04T02:33:34.005Z,5.17
2023-05-04T02:43:36.089Z,5.00
2023-05-04T02:53:38.104Z,4.79
2023-05-04T03:03:40.145Z,5.04
2023-05-04T03:13:42.394Z,5.10
2023-05-04T03:23:44.547Z,5.21
2023-05-04T03:33:46.642Z,4.95
2023-05-04T03:43:49.178Z,4.72
2023-05-04T03:53:51.686Z,4.92
2023-05-04T04:03:54.337Z,4.66
2023-05-04T04:13:56.783Z,4.65
2023-05-04T04:23:58.803Z,5.15
2023-05-04T04:34:00.840Z,4.83
2023-05-04T04:44:03.154Z,5.22
2023-05-04T04:54:05.166Z,5.20
2023-05-04T05:04:07.582Z,4.98
2023-05-04T05:14:10.229Z,5.39
2023-05-04T05:24:12.246Z,5.39
2023-05-04T05:34:14.598Z,5.68
2023-05-04T05:44:16.612Z,6.25
2023-05-04T05:54:19.394Z,6.68
2023-05-04T06:04:21.562Z,7.15
2023-05-04T06:14:23.683Z,7.40
2023-05-04T06:24:26.911Z,8.03
2023-05-04T06:34:29.547Z,8.46
2023-05-04T06:44:35.912Z,8.43
2023-05-04T06:54:39.962Z,8.87
2023-05-04T07:04:42.013Z,8.91
2023-05-04T07:14:44.025Z,9.34
2023-05-04T07:24:46.683Z,9.79
2023-05-04T07:34:48.857Z,9.68
2023-05-04T07:44:51.854Z,10.98
2023-05-04T07:54:54.400Z,11.27
2023-05-04T08:04:56.417Z,11.64
2023-05-04T08:14:59.116Z,12.38
2023-05-04T08:25:01.225Z,13.01
2023-05-04T08:35:03.603Z,13.50
2023-05-04T08:45:07.100Z,14.40
2023-05-04T08:55:11.625Z,14.46
2023-05-04T09:05:13.806Z,14.45
2023-05-04T09:15:20.644Z,14.93
2023-05-04T09:25:22.720Z,14.88
2023-05-04T09:35:33.762Z,15.75
2023-05-04T09:45:45.004Z,15.91
2023-05-04T09:55:47.945Z,16.22
2023-05-04T10:05:50.479Z,16.24
2023-05-04T10:16:30.445Z,16.12
2023-05-04T10:26:55.413Z,16.68
2023-05-04T10:36:58.910Z,16.55
2023-05-04T10:47:06.647Z,17.14
2023-05-04T10:57:11.105Z,17.39
2023-05-04T11:07:13.122Z,18.09
2023-05-04T11:27:25.081Z,18.00
2023-05-04T11:37:29.182Z,18.01
2023-05-04T11:47:31.391Z,18.18
2023-05-04T11:57:36.931Z,17.85
2023-05-04T12:07:38.936Z,19.21
2023-05-04T12:17:41.951Z,19.72
2023-05-04T12:27:44.053Z,18.68
2023-05-04T12:37:46.095Z,19.24
2023-05-04T12:47:48.146Z,19.49
2023-05-04T12:57:50.187Z,18.49
2023-05-04T13:07:53.311Z,19.37
2023-05-04T13:17:55.382Z,19.44
2023-05-04T13:27:58.724Z,18.52
2023-05-04T13:38:01.031Z,19.37
2023-05-04T13:48:03.262Z,19.11
2023-05-04T13:58:05.460Z,19.99
2023-05-04T14:08:07.505Z,19.52
2023-05-04T14:18:09.617Z,19.63
2023-05-04T14:28:11.665Z,19.54
2023-05-04T14:38:13.705Z,19.26
2023-05-04T14:48:16.269Z,18.91
2023-05-04T14:58:18.833Z,19.55
2023-05-04T15:08:20.848Z,19.68
2023-05-04T15:18:26.017Z,19.71
2023-05-04T15:28:28.222Z,18.93
2023-05-04T15:38:30.405Z,19.02
2023-05-04T15:48:32.545Z,19.08
2023-05-04T15:58:34.796Z,19.36
2023-05-04T16:08:36.905Z,18.71
2023-05-04T16:18:39.028Z,18.57
2023-05-04T16:28:41.493Z,18.49
2023-05-04T16:38:43.590Z,19.43
2023-05-04T16:48:45.853Z,19.28
2023-05-04T16:58:47.974Z,19.60
2023-05-04T17:08:50.094Z,19.45
2023-05-04T17:18:52.222Z,19.62
2023-05-04T17:28:54.307Z,19.34
2023-05-04T17:38:56.435Z,19.29
2023-05-04T17:48:58.668Z,19.14
2023-05-04T17:59:00.915Z,18.93
2023-05-04T18:09:03.616Z,18.40
2023-05-04T18:19:12.477Z,18.32
2023-05-04T18:29:19.087Z,17.79
2023-05-04T18:39:21.802Z,18.03
2023-05-04T18:49:23.938Z,18.04
2023-05-04T18:59:26.081Z,17.69
2023-05-04T19:09:31.794Z,17.57
2023-05-04T19:19:37.804Z,16.99
2023-05-04T19:29:39.851Z,16.82
2023-05-04T19:39:42.249Z,16.67
2023-05-04T19:49:47.734Z,16.75
2023-05-04T19:59:49.820Z,16.23
2023-05-04T20:09:51.910Z,15.85
2023-05-04T20:19:53.989Z,15.84
2023-05-04T20:29:55.989Z,15.92
2023-05-04T20:39:58.041Z,15.61
2023-05-04T20:50:00.079Z,15.54
2023-05-04T21:00:02.223Z,15.54
2023-05-04T21:10:04.692Z,15.24
2023-05-04T21:20:07.883Z,14.93
2023-05-04T21:30:11.054Z,14.72
2023-05-04T21:40:13.125Z,14.44
2023-05-04T21:50:15.321Z,14.47
2023-05-04T22:00:17.874Z,14.28
2023-05-04T22:10:20.014Z,14.69
2023-05-04T22:20:23.281Z,15.39
2023-05-04T22:30:26.110Z,15.36
2023-05-04T22:40:28.179Z,15.49
2023-05-04T22:50:30.431Z,15.20
2023-05-04T23:00:32.560Z,15.12
2023-05-04T23:10:35.530Z,15.15
2023-05-04T23:20:37.546Z,14.81
2023-05-04T23:30:39.684Z,15.03
2023-05-04T23:40:41.735Z,15.05
2023-05-04T23:50:54.069Z,15.35
